Flight Number: EUR2338 Duration: 1:45
Departure: Bruxelles National (EBBR) at 18:15 Distance: 521 Nm
Arrival: Bratislava Ivanka (LZIB) at 20:00 Equipment: A321

Weather Information
Bruxelles National, Belgium (EBBR) 50-54N 004-32E 58M Nov 19, 2017 - 10:50 PM EST / 2017.11.20 0350 UTC
Wind: from the SSW (210 degrees) at 9 MPH (8 KT):0
Visibility: greater than 7 mile(s):0 Temperature: 37 F (3 C) Dew Point: 33 F (1 C) Relative Humidity: 86% Pressure (altimeter): 30.15 in. Hg (1021 hPa)
ob: EBBR 200350Z 21008KT CAVOK 03/01 Q1021 NOSIG cycle: 4
Sunrise: 07:11 Sunset: 15:44 (UTC)

Bratislava Ivanka, Slovakia (LZIB) 48-12N 017-12E 142M Nov 19, 2017 - 10:30 PM EST / 2017.11.20 0330 UTC
Wind: from the W (280 degrees) at 22 MPH (19 KT):0
Visibility: greater than 7 mile(s):0
Sky conditions: partly cloudy Temperature: 41 F (5 C) Dew Point: 32 F (0 C) Relative Humidity: 70% Pressure (altimeter): 29.94 in. Hg (1014 hPa)
ob: LZIB 200330Z 28019KT 9999 FEW039 SCT046 05/00 Q1014 cycle: 3
Sunrise: 06:10 Sunset: 15:03 (UTC)

TAF:2017/11/19 18:48 TAF TAF LZIB 191700Z 1918/2018 24010KT 9999 SCT020 BKN060 TEMPO 1918/1922 4000 -SHRA SCT010 BKN030 BECMG 2000/2002 29015G25KT CAVOK TEMPO 2003/2014 30020G35KT BECMG 2014/2016 28006KT 9999 SCT030 BKN080

Previous Pireps for this route
Date Aircraft Flight time Fuel used Landing rate On time
2015-01-09B73702.0210122-208Charter
2015-03-29A32101.3293240Yes
2015-06-07B7770.4027569-463Charter
2015-11-26B77702.1128227-371Charter
(pireps marked green are flown by you)

Route map